createdAt,value
2017-07-22T00:00:57.736Z,0
2017-07-22T00:02:13.637Z,0
2017-07-22T00:03:27.227Z,0
2017-07-22T00:04:41.359Z,0
2017-07-22T00:05:54.869Z,0
2017-07-22T00:07:08.395Z,0
2017-07-22T00:08:23.044Z,0
2017-07-22T00:09:36.968Z,0
2017-07-22T00:10:50.982Z,0
2017-07-22T00:12:04.519Z,0
2017-07-22T00:13:18.097Z,0
2017-07-22T00:14:31.617Z,0
2017-07-22T00:15:45.117Z,0
2017-07-22T00:16:59.082Z,0
2017-07-22T00:18:12.686Z,0
2017-07-22T00:19:26.392Z,0
2017-07-22T00:20:40.061Z,0
2017-07-22T00:21:53.592Z,0
2017-07-22T00:23:07.493Z,0
2017-07-22T00:24:21.388Z,0
2017-07-22T00:25:34.953Z,0
2017-07-22T00:26:48.687Z,0
2017-07-22T00:28:02.579Z,0
2017-07-22T00:29:16.620Z,0
2017-07-22T00:30:30.317Z,0
2017-07-22T00:31:43.892Z,0
2017-07-22T00:32:57.442Z,0
2017-07-22T00:34:11.636Z,0
2017-07-22T00:35:25.826Z,0
2017-07-22T00:36:39.353Z,0
2017-07-22T00:37:52.902Z,0
2017-07-22T00:39:06.806Z,0
2017-07-22T00:40:20.425Z,0
2017-07-22T00:42:00.335Z,0
2017-07-22T00:43:14.262Z,0
2017-07-22T00:44:28.103Z,0
2017-07-22T00:45:42.289Z,0
2017-07-22T00:46:55.814Z,0
2017-07-22T00:48:09.814Z,0
2017-07-22T00:49:23.601Z,0
2017-07-22T00:50:37.554Z,0
2017-07-22T00:51:51.244Z,0
2017-07-22T00:53:04.742Z,0
2017-07-22T00:54:18.827Z,0
2017-07-22T00:55:33.146Z,0
2017-07-22T00:56:46.705Z,0
2017-07-22T00:58:00.223Z,0
2017-07-22T00:59:13.851Z,0
2017-07-22T01:00:27.804Z,0
2017-07-22T01:01:41.351Z,0
2017-07-22T01:02:55.057Z,0
2017-07-22T01:04:08.546Z,0
2017-07-22T01:05:22.105Z,0
2017-07-22T01:06:36.490Z,0
2017-07-22T01:07:50.104Z,0
2017-07-22T01:09:03.694Z,0
2017-07-22T01:10:17.234Z,0
2017-07-22T01:11:31.735Z,0
2017-07-22T01:12:45.681Z,0
2017-07-22T01:13:59.524Z,0
2017-07-22T01:15:13.053Z,0
2017-07-22T01:16:26.663Z,0
2017-07-22T01:17:40.498Z,0
2017-07-22T01:18:54.561Z,0
2017-07-22T01:20:08.088Z,0
2017-07-22T01:21:21.615Z,0
2017-07-22T01:22:35.156Z,0
2017-07-22T01:24:15.987Z,0
2017-07-22T01:25:30.176Z,0
2017-07-22T01:26:43.679Z,0
2017-07-22T01:27:57.200Z,0
2017-07-22T01:29:10.741Z,0
2017-07-22T01:30:24.622Z,0
2017-07-22T01:31:38.515Z,0
2017-07-22T01:32:52.059Z,0
2017-07-22T01:34:05.585Z,0
2017-07-22T01:35:19.398Z,0
2017-07-22T01:36:34.099Z,0
2017-07-22T01:37:48.059Z,0
2017-07-22T01:39:01.922Z,0
2017-07-22T01:40:15.751Z,0
2017-07-22T01:41:29.308Z,0
2017-07-22T01:42:42.824Z,0
2017-07-22T01:43:57.154Z,0
2017-07-22T01:45:10.804Z,0
2017-07-22T01:46:24.577Z,0
2017-07-22T01:47:38.084Z,0
2017-07-22T01:48:52.004Z,0
2017-07-22T01:50:06.114Z,0
2017-07-22T01:51:19.624Z,0
2017-07-22T01:52:33.778Z,0
2017-07-22T01:53:47.342Z,0
2017-07-22T01:55:00.854Z,0
2017-07-22T01:56:14.743Z,0
2017-07-22T01:57:28.304Z,0
2017-07-22T01:58:41.834Z,0
2017-07-22T01:59:55.457Z,0
2017-07-22T02:01:09.326Z,0
2017-07-22T02:02:23.155Z,0
2017-07-22T02:03:36.960Z,0
2017-07-22T02:04:50.525Z,0
2017-07-22T02:06:04.927Z,0
2017-07-22T02:07:18.459Z,0
2017-07-22T02:08:32.822Z,0
2017-07-22T02:09:46.388Z,0
2017-07-22T02:11:00.225Z,0
2017-07-22T02:12:13.760Z,0
2017-07-22T02:13:27.575Z,0
2017-07-22T02:14:41.532Z,0
2017-07-22T02:15:55.424Z,0
2017-07-22T02:17:08.971Z,0
2017-07-22T02:18:22.488Z,0
2017-07-22T02:19:36.314Z,0
2017-07-22T02:20:50.205Z,0
2017-07-22T02:22:03.727Z,0
2017-07-22T02:23:17.375Z,0
2017-07-22T02:24:31.313Z,0
2017-07-22T02:25:45.307Z,0
2017-07-22T02:26:59.093Z,0
2017-07-22T02:28:12.620Z,0
2017-07-22T02:29:26.477Z,0
2017-07-22T02:30:40.857Z,0
2017-07-22T02:31:54.539Z,0
2017-07-22T02:33:08.374Z,0
2017-07-22T02:34:21.932Z,0
2017-07-22T02:35:35.427Z,0
2017-07-22T02:36:49.401Z,0
2017-07-22T02:38:02.943Z,0
2017-07-22T02:39:16.770Z,0
2017-07-22T02:40:30.619Z,0
2017-07-22T02:41:44.662Z,0
2017-07-22T02:42:58.228Z,0
2017-07-22T02:44:11.869Z,0
2017-07-22T02:45:25.974Z,0
2017-07-22T02:46:39.526Z,0
2017-07-22T02:47:53.430Z,0
2017-07-22T02:49:07.483Z,0
2017-07-22T02:50:21.029Z,0
2017-07-22T02:51:34.839Z,0
2017-07-22T02:52:48.465Z,0
2017-07-22T02:54:02.004Z,0
2017-07-22T02:55:15.535Z,0
2017-07-22T02:56:29.039Z,0
2017-07-22T02:57:42.884Z,0
2017-07-22T02:58:56.749Z,0
2017-07-22T03:00:10.912Z,0
2017-07-22T03:01:24.754Z,0
2017-07-22T03:02:38.627Z,0
2017-07-22T03:03:52.534Z,0
2017-07-22T03:05:06.060Z,0
2017-07-22T03:06:19.597Z,0
2017-07-22T03:07:33.155Z,0
2017-07-22T03:08:46.745Z,0
2017-07-22T03:10:00.573Z,0
2017-07-22T03:11:14.082Z,0
2017-07-22T03:12:27.615Z,0
2017-07-22T03:13:41.250Z,0
2017-07-22T03:14:55.140Z,0
2017-07-22T03:16:08.943Z,4
2017-07-22T03:17:22.451Z,4
2017-07-22T03:18:35.963Z,4
2017-07-22T03:19:49.854Z,0
2017-07-22T03:21:03.578Z,4
2017-07-22T03:22:17.607Z,4
2017-07-22T03:23:31.126Z,8
2017-07-22T03:24:44.775Z,4
2017-07-22T03:25:59.344Z,8
2017-07-22T03:27:12.852Z,12
2017-07-22T03:28:26.988Z,12
2017-07-22T03:29:40.567Z,16
2017-07-22T03:30:54.571Z,16
2017-07-22T03:32:08.104Z,20
2017-07-22T03:33:21.938Z,20
2017-07-22T03:34:35.865Z,20
2017-07-22T03:35:49.820Z,24
2017-07-22T03:37:03.430Z,28
2017-07-22T03:38:17.004Z,28
2017-07-22T03:39:31.092Z,28
2017-07-22T03:40:44.977Z,32
2017-07-22T03:41:59.042Z,36
2017-07-22T03:43:44.636Z,44
2017-07-22T03:44:58.144Z,48
2017-07-22T03:46:12.134Z,56
2017-07-22T03:47:25.817Z,64
2017-07-22T03:48:39.686Z,72
2017-07-22T03:49:53.265Z,80
2017-07-22T03:51:06.775Z,92
2017-07-22T03:52:20.580Z,112
2017-07-22T03:53:34.204Z,132
2017-07-22T03:54:47.751Z,152
2017-07-22T03:56:01.275Z,164
2017-07-22T03:57:14.796Z,172
2017-07-22T03:58:29.207Z,184
2017-07-22T03:59:43.086Z,208
2017-07-22T04:00:56.605Z,232
2017-07-22T04:02:10.248Z,260
2017-07-22T04:03:23.778Z,284
2017-07-22T04:04:37.832Z,300
2017-07-22T04:05:52.021Z,296
2017-07-22T04:07:05.858Z,288
2017-07-22T04:08:19.693Z,288
2017-07-22T04:09:33.402Z,296
2017-07-22T04:10:47.359Z,308
2017-07-22T04:12:00.902Z,312
2017-07-22T04:13:14.445Z,308
2017-07-22T04:14:28.044Z,304
2017-07-22T04:15:41.939Z,308
2017-07-22T04:16:55.735Z,316
2017-07-22T04:18:09.264Z,316
2017-07-22T04:19:22.835Z,320
2017-07-22T04:20:36.441Z,336
2017-07-22T04:21:49.977Z,380
2017-07-22T04:23:03.783Z,440
2017-07-22T04:24:17.293Z,496
2017-07-22T04:25:30.998Z,544
2017-07-22T04:26:44.631Z,576
2017-07-22T04:27:58.153Z,596
2017-07-22T04:29:11.961Z,636
2017-07-22T04:30:25.469Z,684
2017-07-22T04:31:39.012Z,740
2017-07-22T04:32:52.542Z,784
2017-07-22T04:34:06.460Z,820
2017-07-22T04:35:20.264Z,852
2017-07-22T04:36:33.837Z,872
2017-07-22T04:37:47.344Z,880
2017-07-22T04:39:00.918Z,896
2017-07-22T04:40:14.797Z,924
2017-07-22T04:41:28.617Z,936
2017-07-22T04:42:42.152Z,956
2017-07-22T04:43:56.355Z,980
2017-07-22T04:45:09.889Z,1000
2017-07-22T04:46:24.273Z,1012
2017-07-22T04:47:38.445Z,1040
2017-07-22T04:48:52.270Z,1084
2017-07-22T04:50:06.210Z,1204
2017-07-22T04:51:19.713Z,1368
2017-07-22T04:52:33.246Z,1452
2017-07-22T04:53:47.027Z,1536
2017-07-22T04:55:00.606Z,1620
2017-07-22T04:56:14.785Z,1712
2017-07-22T04:57:28.615Z,1844
2017-07-22T04:58:42.469Z,2012
2017-07-22T04:59:56.258Z,2144
2017-07-22T05:01:10.101Z,2356
2017-07-22T05:02:23.667Z,2640
2017-07-22T05:03:37.375Z,2888
2017-07-22T05:04:50.943Z,3356
2017-07-22T05:06:04.823Z,3972
2017-07-22T05:07:19.034Z,4720
2017-07-22T05:08:32.554Z,6244
2017-07-22T05:09:46.050Z,6000
2017-07-22T05:10:59.607Z,5652
2017-07-22T05:12:13.433Z,6492
2017-07-22T05:13:27.013Z,5976
2017-07-22T05:14:40.525Z,10364
2017-07-22T05:15:54.267Z,14784
2017-07-22T05:17:07.894Z,20320
2017-07-22T05:18:21.807Z,21760
2017-07-22T05:19:35.332Z,10260
2017-07-22T05:20:48.849Z,8376
2017-07-22T05:22:02.518Z,7836
2017-07-22T05:23:16.115Z,6652
2017-07-22T05:24:29.921Z,5844
2017-07-22T05:25:43.450Z,5708
2017-07-22T05:26:56.982Z,5552
2017-07-22T05:28:10.523Z,6472
2017-07-22T05:29:24.100Z,10220
2017-07-22T05:30:38.253Z,5508
2017-07-22T05:31:52.101Z,12224
2017-07-22T05:33:05.716Z,10652
2017-07-22T05:34:19.649Z,5388
2017-07-22T05:35:33.840Z,4768
2017-07-22T05:36:47.980Z,4180
2017-07-22T05:38:01.534Z,4424
2017-07-22T05:39:15.172Z,4496
2017-07-22T05:40:28.770Z,4416
2017-07-22T05:41:42.717Z,3692
2017-07-22T05:42:56.518Z,3232
2017-07-22T05:44:10.353Z,7540
2017-07-22T05:45:24.020Z,8140
2017-07-22T05:46:37.567Z,10248
2017-07-22T05:47:51.763Z,8960
2017-07-22T05:49:05.888Z,7236
2017-07-22T05:50:19.514Z,4288
2017-07-22T05:51:33.063Z,4628
2017-07-22T05:52:46.591Z,4076
2017-07-22T05:54:00.420Z,3612
2017-07-22T05:55:14.281Z,3164
2017-07-22T05:56:28.110Z,2420
2017-07-22T05:57:41.615Z,2504
2017-07-22T05:58:55.120Z,2724
2017-07-22T06:00:08.724Z,3004
2017-07-22T06:01:22.832Z,3012
2017-07-22T06:02:36.410Z,2744
2017-07-22T06:03:49.986Z,3396
2017-07-22T06:05:03.497Z,2972
2017-07-22T06:06:17.498Z,3352
2017-07-22T06:07:31.341Z,3756
2017-07-22T06:08:44.840Z,3652
2017-07-22T06:09:58.805Z,3060
2017-07-22T06:11:12.965Z,2708
2017-07-22T06:12:26.586Z,2248
2017-07-22T06:13:40.388Z,2632
2017-07-22T06:14:53.964Z,2748
2017-07-22T06:16:07.943Z,2800
2017-07-22T06:17:21.462Z,2524
2017-07-22T06:18:34.990Z,2168
2017-07-22T06:19:48.871Z,1808
2017-07-22T06:21:02.401Z,1900
2017-07-22T06:22:15.936Z,1724
2017-07-22T06:23:29.490Z,2044
2017-07-22T06:24:43.344Z,2180
2017-07-22T06:25:57.223Z,2572
2017-07-22T06:27:10.751Z,3080
2017-07-22T06:28:24.268Z,3696
2017-07-22T06:29:38.611Z,3016
2017-07-22T06:30:52.883Z,3204
2017-07-22T06:32:06.691Z,2612
2017-07-22T06:33:20.755Z,2652
2017-07-22T06:34:34.294Z,2008
2017-07-22T06:35:48.051Z,1776
2017-07-22T06:37:01.630Z,1884
2017-07-22T06:38:15.783Z,2232
2017-07-22T06:39:29.324Z,2564
2017-07-22T06:40:43.220Z,2980
2017-07-22T06:41:57.072Z,3644
2017-07-22T06:43:11.035Z,4724
2017-07-22T06:44:24.837Z,5684
2017-07-22T06:45:38.675Z,6068
2017-07-22T06:46:52.244Z,4628
2017-07-22T06:48:05.868Z,4244
2017-07-22T06:49:20.210Z,4176
2017-07-22T06:50:34.248Z,5288
2017-07-22T06:51:47.886Z,5500
2017-07-22T06:53:01.394Z,5636
2017-07-22T06:54:15.244Z,6908
2017-07-22T06:55:28.766Z,9556
2017-07-22T06:56:42.677Z,9436
2017-07-22T06:57:56.188Z,8216
2017-07-22T06:59:10.693Z,7500
2017-07-22T07:00:24.218Z,6864
2017-07-22T07:01:37.772Z,7104
2017-07-22T07:02:51.767Z,9712
2017-07-22T07:04:05.313Z,10496
2017-07-22T07:05:18.842Z,9056
2017-07-22T07:06:32.358Z,8512
2017-07-22T07:07:46.258Z,8268
2017-07-22T07:09:00.391Z,7612
2017-07-22T07:10:14.354Z,9136
2017-07-22T07:11:28.088Z,10020
2017-07-22T07:12:41.704Z,11164
2017-07-22T07:13:55.219Z,10812
2017-07-22T07:15:09.029Z,10676
2017-07-22T07:16:22.878Z,9492
2017-07-22T07:17:36.603Z,8812
2017-07-22T07:18:50.366Z,8996
2017-07-22T07:20:04.281Z,8512
2017-07-22T07:21:18.093Z,7860
2017-07-22T07:22:32.347Z,7060
2017-07-22T07:23:46.381Z,6512
2017-07-22T07:24:59.940Z,5264
2017-07-22T07:26:13.698Z,5264
2017-07-22T07:27:27.964Z,8864
2017-07-22T07:28:41.600Z,6576
2017-07-22T07:29:56.225Z,5196
2017-07-22T07:31:09.973Z,5304
2017-07-22T07:32:23.574Z,4808
2017-07-22T07:33:37.469Z,5056
2017-07-22T07:34:52.325Z,5352
2017-07-22T07:36:06.095Z,6848
2017-07-22T07:37:19.695Z,7440
2017-07-22T07:38:33.287Z,7376
2017-07-22T07:39:47.444Z,7440
2017-07-22T07:41:01.052Z,6956
2017-07-22T07:42:14.745Z,6708
2017-07-22T07:43:28.339Z,7012
2017-07-22T07:44:42.096Z,8264
2017-07-22T07:45:56.333Z,9036
2017-07-22T07:47:09.873Z,8968
2017-07-22T07:48:23.417Z,8548
2017-07-22T07:49:37.540Z,8544
2017-07-22T07:50:51.341Z,8116
2017-07-22T07:52:05.563Z,7936
2017-07-22T07:53:19.205Z,8480
2017-07-22T07:54:32.786Z,8632
2017-07-22T07:55:46.393Z,8096
2017-07-22T07:57:00.385Z,7768
2017-07-22T07:58:14.484Z,7796
2017-07-22T07:59:28.199Z,7360
2017-07-22T08:00:41.847Z,6744
2017-07-22T08:01:55.909Z,6764
2017-07-22T08:03:09.780Z,8048
2017-07-22T08:04:23.912Z,9112
2017-07-22T08:05:37.476Z,9712
2017-07-22T08:06:51.001Z,9576
2017-07-22T08:08:04.661Z,9924
2017-07-22T08:09:18.599Z,10124
2017-07-22T08:10:32.423Z,9348
2017-07-22T08:11:46.259Z,8732
2017-07-22T08:12:59.832Z,9524
2017-07-22T08:14:13.384Z,9240
2017-07-22T08:15:26.924Z,8364
2017-07-22T08:16:42.522Z,8068
2017-07-22T08:18:11.687Z,8632
2017-07-22T08:19:26.057Z,8112
2017-07-22T08:20:39.662Z,6864
2017-07-22T08:21:53.507Z,6772
2017-07-22T08:23:07.740Z,7152
2017-07-22T08:24:21.292Z,8564
2017-07-22T08:25:35.506Z,9136
2017-07-22T08:26:49.067Z,7908
2017-07-22T08:28:02.992Z,6940
2017-07-22T08:29:16.639Z,6060
2017-07-22T08:30:30.676Z,5172
2017-07-22T08:31:44.216Z,5328
2017-07-22T08:32:58.186Z,5736
2017-07-22T08:34:12.264Z,5400
2017-07-22T08:35:26.044Z,5536
2017-07-22T08:36:40.074Z,7044
2017-07-22T08:37:53.610Z,7788
2017-07-22T08:39:07.541Z,8328
2017-07-22T08:40:21.697Z,8168
2017-07-22T08:41:35.431Z,8400
2017-07-22T08:42:49.395Z,8084
2017-07-22T08:44:05.904Z,7440
2017-07-22T08:45:19.500Z,6692
2017-07-22T08:46:33.459Z,6316
2017-07-22T08:47:47.363Z,5944
2017-07-22T08:49:01.899Z,6024
2017-07-22T08:50:15.675Z,5896
2017-07-22T08:51:31.643Z,5584
2017-07-22T08:52:47.015Z,5260
2017-07-22T08:54:01.480Z,6020
2017-07-22T08:55:15.349Z,6684
2017-07-22T08:56:29.036Z,7284
2017-07-22T08:57:42.594Z,7196
2017-07-22T08:58:56.902Z,7224
2017-07-22T09:00:10.469Z,6900
2017-07-22T09:01:24.363Z,7028
2017-07-22T09:02:38.218Z,6792
2017-07-22T09:03:52.105Z,6796
2017-07-22T09:05:06.036Z,8056
2017-07-22T09:06:19.729Z,9280
2017-07-22T09:07:33.721Z,9088
2017-07-22T09:08:47.653Z,8436
2017-07-22T09:10:01.238Z,7940
2017-07-22T09:11:15.064Z,7528
2017-07-22T09:12:28.621Z,7360
2017-07-22T09:13:42.207Z,7472
2017-07-22T09:14:55.851Z,8552
2017-07-22T09:16:09.669Z,9684
2017-07-22T09:17:23.846Z,9176
2017-07-22T09:18:37.790Z,8168
2017-07-22T09:19:51.711Z,6896
2017-07-22T09:21:06.333Z,6400
2017-07-22T09:22:20.200Z,6680
2017-07-22T09:23:34.244Z,6740
2017-07-22T09:24:47.816Z,6616
2017-07-22T09:26:01.670Z,6256
2017-07-22T09:27:15.544Z,5092
2017-07-22T09:28:29.214Z,4728
2017-07-22T09:29:43.088Z,4236
2017-07-22T09:30:56.772Z,4388
2017-07-22T09:32:10.433Z,4972
2017-07-22T09:33:24.155Z,5656
2017-07-22T09:34:38.181Z,5732
2017-07-22T09:35:53.481Z,5152
2017-07-22T09:37:07.760Z,4748
2017-07-22T09:38:21.411Z,4620
2017-07-22T09:39:35.381Z,4856
2017-07-22T09:40:48.991Z,5244
2017-07-22T09:42:02.637Z,5172
2017-07-22T09:43:16.244Z,4796
2017-07-22T09:44:30.206Z,4264
2017-07-22T09:45:44.009Z,3940
2017-07-22T09:46:57.593Z,3852
2017-07-22T09:48:11.475Z,3780
2017-07-22T09:49:25.102Z,3896
2017-07-22T09:50:38.796Z,4332
2017-07-22T09:51:52.450Z,4816
2017-07-22T09:53:06.469Z,4628
2017-07-22T09:54:20.334Z,4516
2017-07-22T09:55:34.069Z,4348
2017-07-22T09:56:48.058Z,4216
2017-07-22T09:58:01.655Z,4220
2017-07-22T09:59:15.872Z,4264
2017-07-22T10:00:30.204Z,4180
2017-07-22T10:01:43.796Z,4108
2017-07-22T10:02:58.570Z,4404
2017-07-22T10:04:15.070Z,5200
2017-07-22T10:05:29.055Z,5840
2017-07-22T10:06:45.910Z,6024
2017-07-22T10:08:04.229Z,5672
2017-07-22T10:09:21.759Z,5472
2017-07-22T10:10:37.692Z,4960
2017-07-22T10:11:52.598Z,4632
2017-07-22T10:13:07.476Z,4232
2017-07-22T10:14:22.077Z,4016
2017-07-22T10:15:36.564Z,3884
2017-07-22T10:16:51.522Z,3820
2017-07-22T10:18:05.941Z,3796
2017-07-22T10:19:20.222Z,3864
2017-07-22T10:20:33.988Z,3844
2017-07-22T10:21:48.405Z,3540
2017-07-22T10:23:03.215Z,3604
2017-07-22T10:24:17.988Z,3684
2017-07-22T10:25:31.525Z,3652
2017-07-22T10:26:45.504Z,3772
2017-07-22T10:27:59.264Z,4216
2017-07-22T10:29:12.927Z,4972
2017-07-22T10:30:27.187Z,5132
2017-07-22T10:31:41.342Z,5516
2017-07-22T10:32:54.914Z,5948
2017-07-22T10:34:08.838Z,6452
2017-07-22T10:35:22.751Z,6776
2017-07-22T10:36:36.770Z,6928
2017-07-22T10:37:50.303Z,6816
2017-07-22T10:39:03.916Z,6480
2017-07-22T10:40:17.647Z,6324
2017-07-22T10:41:34.930Z,6180
2017-07-22T10:42:50.204Z,5880
2017-07-22T10:44:04.488Z,5712
2017-07-22T10:45:18.604Z,5576
2017-07-22T10:46:32.384Z,5548
2017-07-22T10:47:46.351Z,5600
2017-07-22T10:49:00.182Z,5712
2017-07-22T10:50:14.174Z,5736
2017-07-22T10:51:27.911Z,5464
2017-07-22T10:52:41.972Z,5308
2017-07-22T10:53:55.949Z,5024
2017-07-22T10:55:09.966Z,4164
2017-07-22T10:56:23.613Z,3568
2017-07-22T10:57:37.284Z,3296
2017-07-22T10:58:51.351Z,3280
2017-07-22T11:00:05.942Z,3424
2017-07-22T11:01:21.890Z,3372
2017-07-22T11:02:35.774Z,3264
2017-07-22T11:03:49.446Z,3364
2017-07-22T11:05:03.451Z,3604
2017-07-22T11:06:17.153Z,3840
2017-07-22T11:07:31.119Z,3676
2017-07-22T11:08:44.982Z,3580
2017-07-22T11:09:59.522Z,3796
2017-07-22T11:11:14.039Z,4120
2017-07-22T11:12:28.046Z,4404
2017-07-22T11:13:42.221Z,4456
2017-07-22T11:14:56.130Z,4272
2017-07-22T11:16:10.089Z,4136
2017-07-22T11:17:23.702Z,4032
2017-07-22T11:18:37.314Z,3668
2017-07-22T11:19:52.113Z,3228
2017-07-22T11:21:07.191Z,2816
2017-07-22T11:22:21.319Z,2596
2017-07-22T11:23:35.946Z,2564
2017-07-22T11:24:50.940Z,2624
2017-07-22T11:26:05.305Z,2876
2017-07-22T11:27:18.943Z,3380
2017-07-22T11:28:33.113Z,3788
2017-07-22T11:29:48.804Z,3620
2017-07-22T11:31:04.793Z,3096
2017-07-22T11:32:22.036Z,2664
2017-07-22T11:33:36.564Z,2452
2017-07-22T11:34:52.619Z,2444
2017-07-22T11:36:10.211Z,2480
2017-07-22T11:37:26.240Z,2412
2017-07-22T11:38:40.688Z,2348
2017-07-22T11:39:55.440Z,2368
2017-07-22T11:41:09.405Z,2412
2017-07-22T11:42:23.512Z,2444
2017-07-22T11:43:37.388Z,2384
2017-07-22T11:44:51.991Z,2292
2017-07-22T11:46:05.973Z,2228
2017-07-22T11:47:20.240Z,2168
2017-07-22T11:48:34.213Z,2148
2017-07-22T11:49:47.765Z,2128
2017-07-22T11:51:01.598Z,2048
2017-07-22T11:52:15.213Z,1964
2017-07-22T11:53:29.108Z,1864
2017-07-22T11:54:42.760Z,1764
2017-07-22T11:55:56.650Z,1688
2017-07-22T11:57:10.455Z,1612
2017-07-22T11:58:26.742Z,1540
2017-07-22T11:59:42.036Z,1500
2017-07-22T12:00:55.648Z,1500
2017-07-22T12:02:10.587Z,1532
2017-07-22T12:03:24.452Z,1592
2017-07-22T12:04:39.102Z,1704
2017-07-22T12:05:54.063Z,1900
2017-07-22T12:07:07.588Z,2188
2017-07-22T12:08:21.888Z,2444
2017-07-22T12:09:39.913Z,2628
2017-07-22T12:10:57.388Z,3036
2017-07-22T12:12:13.425Z,3132
2017-07-22T12:13:32.182Z,3408
2017-07-22T12:14:48.293Z,3608
2017-07-22T12:16:05.299Z,3744
2017-07-22T12:17:22.449Z,4112
2017-07-22T12:18:41.446Z,4724
2017-07-22T12:20:00.195Z,5068
2017-07-22T12:21:16.230Z,5100
2017-07-22T12:22:31.867Z,5116
2017-07-22T12:23:46.578Z,4888
2017-07-22T12:25:03.486Z,4332
2017-07-22T12:28:14.276Z,4340
2017-07-22T12:29:27.992Z,5160
2017-07-22T12:30:42.778Z,6248
2017-07-22T12:31:56.744Z,7288
2017-07-22T12:33:11.196Z,7520
2017-07-22T12:34:24.984Z,7472
2017-07-22T12:35:40.284Z,7784
2017-07-22T12:36:54.206Z,7744
2017-07-22T12:38:08.284Z,7724
2017-07-22T12:39:22.342Z,7928
2017-07-22T12:40:36.057Z,7840
2017-07-22T12:41:50.498Z,7280
2017-07-22T12:43:04.381Z,6728
2017-07-22T12:44:18.395Z,6192
2017-07-22T12:45:32.910Z,5700
2017-07-22T12:46:46.761Z,5216
2017-07-22T12:48:00.323Z,4720
2017-07-22T12:49:14.058Z,4336
2017-07-22T12:50:27.885Z,4080
2017-07-22T12:51:41.439Z,3936
2017-07-22T12:52:55.737Z,3880
2017-07-22T12:54:09.381Z,3836
2017-07-22T12:55:22.929Z,3740
2017-07-22T12:56:36.811Z,3644
2017-07-22T12:57:50.392Z,3568
2017-07-22T12:59:04.086Z,3532
2017-07-22T13:00:17.720Z,3496
2017-07-22T13:01:31.926Z,3464
2017-07-22T13:02:45.921Z,3384
2017-07-22T13:03:59.446Z,3356
2017-07-22T13:05:13.107Z,3524
2017-07-22T13:06:26.983Z,4372
2017-07-22T13:07:40.542Z,4664
2017-07-22T13:08:55.289Z,4072
2017-07-22T13:10:09.258Z,4064
2017-07-22T13:11:23.131Z,3876
2017-07-22T13:12:36.720Z,3684
2017-07-22T13:13:50.336Z,3676
2017-07-22T13:15:04.411Z,3708
2017-07-22T13:16:18.360Z,3704
2017-07-22T13:17:31.927Z,3768
2017-07-22T13:18:45.911Z,3840
2017-07-22T13:19:59.496Z,3944
2017-07-22T13:21:13.367Z,4032
2017-07-22T13:22:26.907Z,4036
2017-07-22T13:23:40.524Z,4000
2017-07-22T13:24:54.078Z,3972
2017-07-22T13:26:07.937Z,3924
2017-07-22T13:27:22.110Z,3884
2017-07-22T13:28:35.646Z,4080
2017-07-22T13:29:49.171Z,4220
2017-07-22T13:31:03.172Z,4300
2017-07-22T13:32:19.003Z,4636
2017-07-22T13:33:35.219Z,4768
2017-07-22T13:34:50.012Z,4680
2017-07-22T13:36:04.299Z,5152
2017-07-22T13:37:18.170Z,5020
2017-07-22T13:38:31.697Z,4560
2017-07-22T13:39:45.739Z,4212
2017-07-22T13:40:59.729Z,3968
2017-07-22T13:42:13.338Z,3188
2017-07-22T13:43:27.490Z,2640
2017-07-22T13:44:41.033Z,2320
2017-07-22T13:45:54.859Z,2060
2017-07-22T13:47:08.440Z,1920
2017-07-22T13:48:22.305Z,1820
2017-07-22T13:49:35.846Z,1716
2017-07-22T13:50:49.668Z,1648
2017-07-22T13:52:03.902Z,1544
2017-07-22T13:53:17.513Z,1448
2017-07-22T13:54:31.041Z,1388
2017-07-22T13:55:44.599Z,1328
2017-07-22T13:56:58.276Z,1292
2017-07-22T13:58:12.088Z,1296
2017-07-22T13:59:26.266Z,1356
2017-07-22T14:00:39.830Z,1444
2017-07-22T14:01:53.696Z,1696
2017-07-22T14:03:07.432Z,1988
2017-07-22T14:04:21.237Z,1944
2017-07-22T14:05:35.525Z,1920
2017-07-22T14:06:49.379Z,1940
2017-07-22T14:08:03.259Z,2004
2017-07-22T14:09:16.826Z,1956
2017-07-22T14:10:30.967Z,1876
2017-07-22T14:11:44.509Z,1956
2017-07-22T14:12:58.079Z,2056
2017-07-22T14:14:11.745Z,2188
2017-07-22T14:15:25.388Z,2372
2017-07-22T14:16:39.542Z,2468
2017-07-22T14:17:53.113Z,2636
2017-07-22T14:19:06.909Z,2860
2017-07-22T14:20:20.782Z,3196
2017-07-22T14:21:34.290Z,3404
2017-07-22T14:22:48.128Z,3540
2017-07-22T14:24:01.711Z,3764
2017-07-22T14:25:15.531Z,4100
2017-07-22T14:26:29.146Z,4324
2017-07-22T14:27:42.720Z,4376
2017-07-22T14:28:56.913Z,5136
2017-07-22T14:30:10.672Z,5988
2017-07-22T14:31:25.122Z,6416
2017-07-22T14:32:39.103Z,5964
2017-07-22T14:33:53.003Z,5312
2017-07-22T14:35:07.473Z,4772
2017-07-22T14:36:21.030Z,4304
2017-07-22T14:37:34.569Z,3992
2017-07-22T14:38:48.110Z,3808
2017-07-22T14:40:01.904Z,3668
2017-07-22T14:41:15.988Z,3572
2017-07-22T14:42:30.069Z,3452
2017-07-22T14:43:44.089Z,3116
2017-07-22T14:44:57.634Z,2872
2017-07-22T14:46:11.354Z,2904
2017-07-22T14:47:25.205Z,2812
2017-07-22T14:48:38.771Z,2676
2017-07-22T14:49:52.694Z,2692
2017-07-22T14:51:06.383Z,2404
2017-07-22T14:52:20.500Z,2452
2017-07-22T14:53:34.438Z,2444
2017-07-22T14:54:48.222Z,2412
2017-07-22T14:56:01.801Z,2272
2017-07-22T14:57:15.429Z,2284
2017-07-22T14:58:29.072Z,2412
2017-07-22T14:59:42.943Z,2640
2017-07-22T15:00:56.535Z,2556
2017-07-22T15:02:10.201Z,2444
2017-07-22T15:03:26.269Z,2724
2017-07-22T15:04:41.191Z,3196
2017-07-22T15:05:55.348Z,3540
2017-07-22T15:07:08.933Z,4120
2017-07-22T15:08:22.471Z,4384
2017-07-22T15:09:36.000Z,4108
2017-07-22T15:10:49.761Z,3584
2017-07-22T15:12:03.911Z,3112
2017-07-22T15:13:17.505Z,2692
2017-07-22T15:14:31.112Z,2372
2017-07-22T15:15:44.761Z,2212
2017-07-22T15:16:59.175Z,2204
2017-07-22T15:18:13.478Z,2204
2017-07-22T15:19:27.083Z,2200
2017-07-22T15:20:41.363Z,2204
2017-07-22T15:21:54.893Z,2204
2017-07-22T15:23:09.078Z,2212
2017-07-22T15:24:23.162Z,2248
2017-07-22T15:25:37.055Z,2300
2017-07-22T15:26:51.228Z,2328
2017-07-22T15:28:05.640Z,2340
2017-07-22T15:29:20.540Z,2416
2017-07-22T15:30:38.993Z,2540
2017-07-22T15:31:52.924Z,3152
2017-07-22T15:33:07.024Z,4012
2017-07-22T15:34:20.695Z,4516
2017-07-22T15:35:34.419Z,4032
2017-07-22T15:36:55.630Z,3320
2017-07-22T15:38:10.432Z,3036
2017-07-22T15:39:24.041Z,2980
2017-07-22T15:40:38.754Z,2872
2017-07-22T15:41:52.515Z,2744
2017-07-22T15:43:06.795Z,2600
2017-07-22T15:44:20.924Z,2544
2017-07-22T15:45:35.441Z,2436
2017-07-22T15:46:48.993Z,2524
2017-07-22T15:48:10.305Z,2812
2017-07-22T15:49:27.909Z,3368
2017-07-22T15:50:41.666Z,3696
2017-07-22T15:51:56.048Z,3772
2017-07-22T15:53:10.771Z,3840
2017-07-22T15:54:24.354Z,3628
2017-07-22T15:55:38.292Z,3112
2017-07-22T15:56:51.914Z,2792
2017-07-22T15:58:05.480Z,2780
2017-07-22T15:59:19.651Z,2748
2017-07-22T16:00:34.436Z,2624
2017-07-22T16:01:48.942Z,3100
2017-07-22T16:03:02.462Z,4212
2017-07-22T16:04:16.140Z,4120
2017-07-22T16:05:30.658Z,3676
2017-07-22T16:06:44.627Z,3588
2017-07-22T16:07:58.897Z,3720
2017-07-22T16:09:13.023Z,3868
2017-07-22T16:10:26.726Z,4264
2017-07-22T16:11:40.429Z,4684
2017-07-22T16:12:54.011Z,4968
2017-07-22T16:14:09.298Z,4876
2017-07-22T16:15:23.849Z,5072
2017-07-22T16:16:37.745Z,5140
2017-07-22T16:17:51.404Z,5332
2017-07-22T16:19:05.022Z,5636
2017-07-22T16:20:19.236Z,5692
2017-07-22T16:21:32.909Z,5584
2017-07-22T16:22:47.364Z,5520
2017-07-22T16:24:01.638Z,5456
2017-07-22T16:25:15.150Z,5456
2017-07-22T16:26:28.978Z,5244
2017-07-22T16:27:42.715Z,4916
2017-07-22T16:28:56.635Z,4952
2017-07-22T16:30:10.488Z,5124
2017-07-22T16:31:24.665Z,5076
2017-07-22T16:32:39.683Z,4628
2017-07-22T16:33:53.678Z,4944
2017-07-22T16:35:07.653Z,5208
2017-07-22T16:36:21.460Z,4988
2017-07-22T16:37:35.880Z,4372
2017-07-22T16:38:50.013Z,4096
2017-07-22T16:40:03.731Z,3628
2017-07-22T16:41:18.329Z,3080
2017-07-22T16:42:32.179Z,3372
2017-07-22T16:43:45.836Z,3860
2017-07-22T16:44:59.737Z,4352
2017-07-22T16:46:13.393Z,4812
2017-07-22T16:47:26.991Z,4592
2017-07-22T16:48:40.724Z,4384
2017-07-22T16:49:54.466Z,4228
2017-07-22T16:51:08.406Z,4156
2017-07-22T16:52:22.392Z,3908